createdAt,value
2018-01-27T00:01:52.233Z,23.55
2018-01-27T00:05:02.174Z,25.75
2018-01-27T00:08:11.650Z,20.83
2018-01-27T00:11:21.742Z,23.27
2018-01-27T00:14:32.199Z,26.10
2018-01-27T00:17:42.368Z,22.15
2018-01-27T00:20:52.799Z,19.73
2018-01-27T00:24:03.218Z,18.60
2018-01-27T00:27:13.223Z,17.98
2018-01-27T00:30:23.819Z,26.33
2018-01-27T00:33:34.212Z,18.35
2018-01-27T00:36:44.301Z,16.17
2018-01-27T00:39:54.200Z,15.73
2018-01-27T00:43:04.266Z,23.05
2018-01-27T00:46:14.082Z,21.73
2018-01-27T00:49:24.209Z,22.90
2018-01-27T00:52:34.421Z,27.37
2018-01-27T00:55:44.873Z,31.17
2018-01-27T00:58:55.045Z,22.02
2018-01-27T01:02:05.324Z,19.80
2018-01-27T01:05:16.584Z,14.68
2018-01-27T01:08:27.686Z,17.65
2018-01-27T01:11:37.943Z,24.65
2018-01-27T01:14:48.777Z,16.12
2018-01-27T01:17:58.670Z,18.33
2018-01-27T01:21:09.087Z,27.33
2018-01-27T01:24:19.660Z,25.48
2018-01-27T01:27:30.407Z,21.12
2018-01-27T01:30:40.714Z,23.40
2018-01-27T01:33:50.448Z,20.95
2018-01-27T01:37:00.410Z,23.87
2018-01-27T01:40:10.401Z,23.65
2018-01-27T01:43:25.757Z,28.95
2018-01-27T01:46:36.088Z,22.40
2018-01-27T01:49:45.921Z,22.62
2018-01-27T01:52:55.789Z,26.90
2018-01-27T01:56:06.338Z,26.55
2018-01-27T01:59:16.737Z,25.75
2018-01-27T02:02:39.214Z,24.87
2018-01-27T02:05:49.418Z,21.27
2018-01-27T02:09:12.119Z,15.15
2018-01-27T02:12:22.421Z,19.30
2018-01-27T02:15:32.934Z,22.25
2018-01-27T02:18:43.072Z,15.05
2018-01-27T02:21:53.662Z,22.05
2018-01-27T02:25:03.618Z,16.25
2018-01-27T02:28:14.202Z,21.17
2018-01-27T02:31:24.103Z,15.02
2018-01-27T02:34:33.910Z,18.00
2018-01-27T02:37:44.628Z,17.45
2018-01-27T02:40:54.413Z,19.20
2018-01-27T02:44:04.919Z,20.70
2018-01-27T02:47:15.629Z,15.52
2018-01-27T02:50:26.048Z,18.23
2018-01-27T02:53:35.618Z,20.45
2018-01-27T02:56:45.556Z,20.85
2018-01-27T02:59:55.411Z,23.55
2018-01-27T03:03:05.267Z,21.80
2018-01-27T03:06:15.199Z,19.85
2018-01-27T03:09:25.069Z,31.83
2018-01-27T03:12:35.825Z,23.70
2018-01-27T03:15:46.058Z,15.77
2018-01-27T03:18:56.299Z,18.60
2018-01-27T03:22:06.641Z,22.33
2018-01-27T03:25:16.503Z,25.95
2018-01-27T03:28:26.221Z,18.98
2018-01-27T03:31:36.819Z,20.65
2018-01-27T03:34:47.417Z,19.58
2018-01-27T03:37:57.614Z,15.98
2018-01-27T03:41:09.403Z,15.65
2018-01-27T03:44:19.372Z,16.92
2018-01-27T03:47:29.971Z,17.35
2018-01-27T03:50:40.144Z,16.52
2018-01-27T03:53:50.074Z,16.15
2018-01-27T03:56:59.791Z,15.70
2018-01-27T04:00:09.779Z,26.25
2018-01-27T04:03:20.597Z,18.02
2018-01-27T04:06:30.232Z,19.50
2018-01-27T04:09:40.336Z,23.10
2018-01-27T04:12:50.326Z,18.62
2018-01-27T04:16:00.882Z,14.98
2018-01-27T04:19:11.045Z,19.10
2018-01-27T04:22:21.047Z,17.00
2018-01-27T04:25:31.361Z,16.85
2018-01-27T04:28:41.355Z,15.57
2018-01-27T04:31:51.739Z,17.20
2018-01-27T04:35:03.383Z,19.80
2018-01-27T04:38:13.205Z,19.98
2018-01-27T04:41:23.610Z,18.98
2018-01-27T04:44:33.357Z,22.20
2018-01-27T04:47:43.087Z,33.20
2018-01-27T04:50:53.150Z,15.35
2018-01-27T04:54:03.244Z,17.92
2018-01-27T04:57:13.881Z,22.15
2018-01-27T05:00:23.880Z,17.50
2018-01-27T05:03:33.836Z,22.98
2018-01-27T05:06:43.554Z,20.85
2018-01-27T05:09:53.207Z,18.92
2018-01-27T05:13:03.174Z,18.45
2018-01-27T05:16:12.934Z,26.75
2018-01-27T05:19:22.906Z,20.08
2018-01-27T05:22:32.811Z,15.43
2018-01-27T05:25:42.604Z,17.02
2018-01-27T05:29:11.033Z,17.35
2018-01-27T05:32:21.541Z,17.48
2018-01-27T05:35:31.929Z,17.80
2018-01-27T05:38:42.047Z,16.60
2018-01-27T05:41:52.131Z,20.35
2018-01-27T05:45:02.346Z,20.52
2018-01-27T05:48:13.415Z,26.17
2018-01-27T05:51:23.152Z,28.60
2018-01-27T05:57:50.475Z,22.83
2018-01-27T06:01:00.170Z,30.17
2018-01-27T06:04:11.785Z,39.58
2018-01-27T06:07:21.957Z,32.30
2018-01-27T06:14:07.776Z,28.58
2018-01-27T06:17:17.919Z,27.73
2018-01-27T06:20:27.971Z,22.65
2018-01-27T06:23:37.662Z,30.50
2018-01-27T06:26:48.285Z,19.77
2018-01-27T06:29:59.562Z,20.62
2018-01-27T06:33:10.081Z,25.60
2018-01-27T06:36:21.170Z,22.00
2018-01-27T06:39:31.222Z,27.87
2018-01-27T06:42:41.347Z,23.58
2018-01-27T06:45:52.188Z,35.78
2018-01-27T06:49:02.105Z,26.92
2018-01-27T06:52:11.927Z,32.13
2018-01-27T06:55:22.242Z,36.58
2018-01-27T06:58:51.281Z,22.87
2018-01-27T07:02:01.507Z,31.00
2018-01-27T07:05:11.860Z,33.78
2018-01-27T07:08:21.835Z,33.08
2018-01-27T07:14:49.430Z,22.80
2018-01-27T07:17:59.770Z,40.03
2018-01-27T07:21:10.242Z,31.80
2018-01-27T07:24:21.186Z,31.30
2018-01-27T07:27:30.910Z,26.02
2018-01-27T07:30:40.979Z,28.55
2018-01-27T07:33:50.987Z,34.47
2018-01-27T07:37:00.932Z,39.10
2018-01-27T07:40:10.708Z,27.77
2018-01-27T07:43:20.661Z,25.10
2018-01-27T07:46:30.647Z,25.10
2018-01-27T07:49:40.595Z,29.70
2018-01-27T07:52:50.434Z,45.65
2018-01-27T07:56:00.256Z,28.55
2018-01-27T07:59:11.304Z,26.02
2018-01-27T08:02:21.298Z,31.35
2018-01-27T08:05:31.882Z,36.45
2018-01-27T08:08:43.050Z,35.85
2018-01-27T08:11:53.666Z,29.85
2018-01-27T08:15:03.613Z,35.38
2018-01-27T08:18:14.271Z,32.50
2018-01-27T08:21:24.819Z,27.90
2018-01-27T08:24:35.391Z,33.30
2018-01-27T08:27:45.154Z,25.55
2018-01-27T08:30:55.737Z,33.05
2018-01-27T08:34:05.862Z,30.17
2018-01-27T08:37:15.651Z,39.95
2018-01-27T08:40:25.413Z,25.35
2018-01-27T08:43:36.232Z,23.42
2018-01-27T08:46:46.054Z,27.92
2018-01-27T08:49:56.938Z,29.83
2018-01-27T08:53:06.665Z,29.55
2018-01-27T08:56:16.538Z,30.20
2018-01-27T08:59:26.453Z,22.77
2018-01-27T09:02:36.337Z,22.20
2018-01-27T09:05:46.230Z,35.40
2018-01-27T09:08:56.484Z,24.77
2018-01-27T09:12:07.141Z,27.90
2018-01-27T09:15:17.737Z,41.22
2018-01-27T09:18:28.631Z,23.10
2018-01-27T09:21:38.941Z,26.35
2018-01-27T09:24:50.198Z,28.95
2018-01-27T09:28:00.519Z,29.92
2018-01-27T09:31:11.015Z,27.75
2018-01-27T09:34:20.969Z,29.52
2018-01-27T09:37:30.707Z,39.22
2018-01-27T09:40:40.395Z,59.08
2018-01-27T09:43:51.670Z,33.38
2018-01-27T09:47:02.635Z,32.30
2018-01-27T09:50:12.907Z,34.13
2018-01-27T09:53:22.834Z,39.63
2018-01-27T09:56:33.455Z,33.80
2018-01-27T09:59:43.382Z,26.92
2018-01-27T10:02:53.032Z,30.02
2018-01-27T10:06:03.110Z,30.98
2018-01-27T10:09:12.978Z,34.97
2018-01-27T10:12:22.706Z,30.80
2018-01-27T10:15:32.680Z,30.35
2018-01-27T10:18:42.428Z,37.88
2018-01-27T10:21:52.471Z,26.77
2018-01-27T10:25:02.715Z,32.85
2018-01-27T10:28:12.747Z,32.17
2018-01-27T10:31:22.691Z,32.67
2018-01-27T10:34:33.777Z,27.45
2018-01-27T10:37:44.267Z,41.10
2018-01-27T10:40:55.503Z,22.37
2018-01-27T10:44:06.852Z,26.90
2018-01-27T10:47:17.173Z,34.00
2018-01-27T10:50:28.125Z,35.20
2018-01-27T10:53:38.047Z,40.10
2018-01-27T10:56:48.806Z,42.75
2018-01-27T10:59:59.187Z,35.53
2018-01-27T11:03:09.847Z,26.00
2018-01-27T11:06:20.051Z,28.90
2018-01-27T11:09:29.960Z,28.08
2018-01-27T11:12:39.840Z,32.70
2018-01-27T11:15:49.278Z,21.37
2018-01-27T11:18:59.742Z,41.30
2018-01-27T11:22:09.262Z,32.45
2018-01-27T11:25:20.183Z,20.05
2018-01-27T11:28:30.526Z,20.52
2018-01-27T11:31:42.350Z,27.52
2018-01-27T11:34:52.381Z,37.60
2018-01-27T11:38:02.458Z,25.60
2018-01-27T11:41:12.747Z,50.03
2018-01-27T11:44:23.050Z,34.80
2018-01-27T11:47:33.262Z,28.20
2018-01-27T11:50:43.927Z,37.72
2018-01-27T11:53:54.539Z,38.20
2018-01-27T11:57:05.184Z,35.42
2018-01-27T12:00:15.614Z,43.80
2018-01-27T12:03:25.156Z,28.80
2018-01-27T12:06:34.915Z,29.08
2018-01-27T12:09:44.895Z,27.00
2018-01-27T12:12:54.874Z,43.50
2018-01-27T12:16:05.457Z,27.98
2018-01-27T12:19:15.835Z,27.05
2018-01-27T12:22:25.669Z,35.17
2018-01-27T12:25:36.242Z,27.58
2018-01-27T12:28:46.466Z,36.70
2018-01-27T12:31:56.279Z,31.40
2018-01-27T12:35:06.080Z,32.88
2018-01-27T12:38:16.247Z,29.77
2018-01-27T12:41:27.863Z,38.05
2018-01-27T12:44:38.977Z,42.42
2018-01-27T12:47:50.187Z,38.88
2018-01-27T12:51:02.317Z,33.20
2018-01-27T12:54:13.340Z,36.65
2018-01-27T12:57:24.005Z,40.28
2018-01-27T13:00:34.188Z,52.08
2018-01-27T13:03:45.006Z,30.83
2018-01-27T13:06:55.453Z,41.08
2018-01-27T13:10:06.009Z,51.63
2018-01-27T13:13:17.640Z,37.97
2018-01-27T13:16:28.167Z,35.58
2018-01-27T13:19:38.609Z,39.42
2018-01-27T13:22:48.963Z,29.52
2018-01-27T13:25:58.911Z,35.67
2018-01-27T13:29:08.751Z,57.17
2018-01-27T13:32:18.604Z,51.65
2018-01-27T13:35:29.407Z,37.42
2018-01-27T13:38:39.503Z,32.67
2018-01-27T13:41:49.284Z,34.28
2018-01-27T13:44:59.015Z,46.20
2018-01-27T13:48:08.664Z,29.08
2018-01-27T13:51:19.537Z,31.70
2018-01-27T13:54:29.764Z,30.90
2018-01-27T13:57:39.932Z,38.60
2018-01-27T14:00:50.176Z,31.98
2018-01-27T14:04:00.396Z,49.83
2018-01-27T14:07:10.559Z,32.90
2018-01-27T14:10:20.275Z,32.88
2018-01-27T14:13:31.806Z,29.65
2018-01-27T14:16:42.169Z,33.25
2018-01-27T14:19:51.999Z,49.00
2018-01-27T14:23:02.862Z,35.75
2018-01-27T14:26:13.338Z,27.30
2018-01-27T14:29:24.050Z,29.00
2018-01-27T14:32:34.899Z,31.08
2018-01-27T14:35:44.969Z,38.92
2018-01-27T14:38:54.777Z,30.12
2018-01-27T14:42:04.616Z,39.85
2018-01-27T14:45:14.423Z,30.95
2018-01-27T14:48:24.232Z,29.60
2018-01-27T14:51:34.829Z,36.17
2018-01-27T14:54:44.922Z,26.37
2018-01-27T14:57:54.995Z,27.62
2018-01-27T15:01:05.036Z,38.58
2018-01-27T15:04:15.887Z,31.48
2018-01-27T15:07:26.933Z,28.23
2018-01-27T15:10:37.266Z,30.70
2018-01-27T15:13:47.188Z,32.88
2018-01-27T15:16:57.311Z,33.40
2018-01-27T15:20:07.496Z,32.35
2018-01-27T15:23:17.538Z,27.60
2018-01-27T15:26:28.130Z,28.23
2018-01-27T15:29:38.161Z,28.15
2018-01-27T15:32:48.187Z,39.75
2018-01-27T15:35:59.088Z,25.20
2018-01-27T15:39:08.991Z,25.50
2018-01-27T15:42:19.360Z,20.42
2018-01-27T15:45:30.071Z,25.45
2018-01-27T15:48:39.952Z,21.02
2018-01-27T15:51:50.639Z,22.37
2018-01-27T15:55:00.394Z,22.98
2018-01-27T15:58:10.707Z,22.62
2018-01-27T16:01:20.715Z,19.33
2018-01-27T16:04:30.518Z,22.42
2018-01-27T16:07:40.315Z,19.17
2018-01-27T16:10:50.122Z,18.10
2018-01-27T16:13:59.887Z,22.10
2018-01-27T16:17:09.744Z,27.62
2018-01-27T16:20:20.613Z,22.87
2018-01-27T16:23:31.167Z,23.52
2018-01-27T16:26:41.438Z,18.67
2018-01-27T16:29:51.286Z,21.35
2018-01-27T16:33:01.629Z,17.83
2018-01-27T16:36:13.018Z,20.77
2018-01-27T16:39:24.149Z,24.15
2018-01-27T16:42:34.894Z,15.77
2018-01-27T16:45:46.377Z,21.70
2018-01-27T16:48:57.107Z,21.62
2018-01-27T16:52:07.393Z,17.42
2018-01-27T16:55:17.733Z,18.77
2018-01-27T16:58:27.486Z,21.60
2018-01-27T17:01:37.333Z,33.42
2018-01-27T17:04:47.981Z,19.45
2018-01-27T17:07:58.198Z,18.92
2018-01-27T17:11:08.034Z,17.10
2018-01-27T17:14:18.238Z,17.12
2018-01-27T17:17:28.143Z,16.23
2018-01-27T17:20:38.027Z,17.95
2018-01-27T17:23:47.974Z,16.45
2018-01-27T17:26:58.660Z,17.83
2018-01-27T17:30:08.202Z,22.70
2018-01-27T17:33:18.314Z,30.37
2018-01-27T17:36:28.560Z,35.50
2018-01-27T17:39:38.493Z,20.55
2018-01-27T17:42:48.650Z,17.27
2018-01-27T17:45:58.423Z,20.08
2018-01-27T17:49:08.460Z,28.25
2018-01-27T17:52:18.916Z,37.22
2018-01-27T17:55:29.339Z,26.98
2018-01-27T17:58:39.748Z,31.02
2018-01-27T18:01:49.887Z,34.35
2018-01-27T18:05:00.180Z,29.90
2018-01-27T18:08:10.041Z,22.23
2018-01-27T18:11:19.836Z,27.08
2018-01-27T18:14:29.721Z,19.23
2018-01-27T18:17:39.751Z,20.25
2018-01-27T18:20:50.362Z,18.35
2018-01-27T18:24:00.275Z,27.35
2018-01-27T18:27:09.955Z,24.83
2018-01-27T18:30:19.993Z,23.70
2018-01-27T18:33:30.040Z,22.40
2018-01-27T18:36:40.759Z,19.45
2018-01-27T18:39:51.470Z,23.75
2018-01-27T18:43:02.254Z,18.73
2018-01-27T18:46:12.697Z,20.35
2018-01-27T18:49:22.826Z,17.23
2018-01-27T18:52:32.848Z,16.00
2018-01-27T18:55:42.942Z,24.08
2018-01-27T18:58:53.629Z,15.07
2018-01-27T19:02:04.231Z,17.98
2018-01-27T19:05:14.185Z,19.20
2018-01-27T19:08:25.255Z,15.35
2018-01-27T19:11:35.635Z,18.42
2018-01-27T19:14:45.719Z,18.27
2018-01-27T19:17:55.785Z,15.13
2018-01-27T19:21:06.537Z,14.18
2018-01-27T19:24:15.982Z,16.15
2018-01-27T19:27:26.562Z,14.05
2018-01-27T19:30:37.338Z,15.38
2018-01-27T19:33:47.137Z,17.17
2018-01-27T19:36:57.116Z,18.40
2018-01-27T19:40:06.963Z,21.23
2018-01-27T19:43:17.795Z,16.85
2018-01-27T19:46:27.854Z,28.12
2018-01-27T19:49:37.817Z,14.95
2018-01-27T19:52:47.790Z,15.07
2018-01-27T19:55:57.847Z,13.27
2018-01-27T19:59:08.140Z,11.70
2018-01-27T20:02:18.388Z,13.30
2018-01-27T20:05:29.084Z,16.73
2018-01-27T20:08:39.574Z,21.73
2018-01-27T20:11:50.222Z,15.45
2018-01-27T20:15:00.521Z,14.85
2018-01-27T20:18:11.033Z,16.00
2018-01-27T20:21:21.261Z,14.30
2018-01-27T20:24:31.759Z,13.75
2018-01-27T20:27:42.493Z,13.32
2018-01-27T20:30:52.505Z,13.88
2018-01-27T20:34:02.431Z,14.05
2018-01-27T20:37:13.078Z,13.82
2018-01-27T20:40:24.271Z,13.15
2018-01-27T20:43:34.495Z,17.23
2018-01-27T20:46:45.198Z,15.48
2018-01-27T20:49:55.926Z,13.70
2018-01-27T20:53:05.576Z,12.95
2018-01-27T20:56:16.210Z,13.07
2018-01-27T20:59:26.340Z,11.68
2018-01-27T21:02:36.073Z,14.52
2018-01-27T21:05:46.868Z,12.43
2018-01-27T21:08:57.330Z,17.00
2018-01-27T21:12:07.706Z,14.20
2018-01-27T21:15:18.201Z,15.20
2018-01-27T21:18:28.894Z,11.80
2018-01-27T21:21:38.813Z,13.98
2018-01-27T21:24:48.923Z,14.15
2018-01-27T21:27:59.103Z,13.23
2018-01-27T21:31:09.125Z,15.63
2018-01-27T21:34:19.555Z,13.13
2018-01-27T21:37:30.249Z,18.85
2018-01-27T21:40:40.321Z,15.88
2018-01-27T21:43:50.165Z,12.68
2018-01-27T21:47:00.250Z,11.48
2018-01-27T21:50:10.070Z,18.58
2018-01-27T21:53:19.330Z,21.62
2018-01-27T21:56:29.762Z,13.27
2018-01-27T21:59:40.854Z,27.58
2018-01-27T22:02:50.873Z,15.00
2018-01-27T22:06:07.112Z,14.02
2018-01-27T22:09:17.509Z,15.93
2018-01-27T22:12:27.423Z,17.65
2018-01-27T22:15:37.243Z,13.00
2018-01-27T22:18:47.458Z,17.77
2018-01-27T22:21:57.697Z,12.68
2018-01-27T22:25:08.105Z,15.30
2018-01-27T22:28:18.303Z,14.40
2018-01-27T22:31:28.483Z,18.23
2018-01-27T22:34:39.161Z,14.82
2018-01-27T22:37:48.894Z,9.50
2018-01-27T22:40:59.531Z,9.95
2018-01-27T22:44:10.067Z,8.98
2018-01-27T22:47:20.378Z,15.70
2018-01-27T22:50:30.473Z,13.32
2018-01-27T22:53:40.294Z,14.07
2018-01-27T22:56:50.221Z,12.25
2018-01-27T23:00:00.061Z,21.15
2018-01-27T23:03:09.914Z,12.00
2018-01-27T23:06:20.407Z,16.95
2018-01-27T23:09:31.472Z,16.45
2018-01-27T23:12:41.609Z,15.82
2018-01-27T23:15:53.898Z,15.63
2018-01-27T23:19:04.256Z,17.02
2018-01-27T23:22:14.847Z,16.83
2018-01-27T23:25:25.768Z,16.02
2018-01-27T23:28:36.064Z,18.08
2018-01-27T23:31:46.189Z,16.20
2018-01-27T23:34:56.383Z,15.55
2018-01-27T23:38:06.908Z,15.10
2018-01-27T23:41:17.258Z,13.32
2018-01-27T23:44:27.663Z,25.83
2018-01-27T23:47:38.155Z,18.75
2018-01-27T23:50:48.759Z,14.30
2018-01-27T23:53:58.580Z,20.42
2018-01-27T23:57:09.049Z,15.70
